createdAt,value
2023-01-28T00:02:09.851Z,2.07
2023-01-28T00:04:38.713Z,3.00
2023-01-28T00:07:06.463Z,2.43
2023-01-28T00:09:33.939Z,2.88
2023-01-28T00:12:01.517Z,3.25
2023-01-28T00:14:29.673Z,3.25
2023-01-28T00:16:57.250Z,3.40
2023-01-28T00:19:24.713Z,3.29
2023-01-28T00:21:53.510Z,3.20
2023-01-28T00:24:21.339Z,3.09
2023-01-28T00:26:48.804Z,2.90
2023-01-28T00:29:16.249Z,3.02
2023-01-28T00:31:43.795Z,2.93
2023-01-28T00:34:11.271Z,2.02
2023-01-28T00:36:39.391Z,1.97
2023-01-28T00:39:08.180Z,1.91
2023-01-28T00:41:36.171Z,2.09
2023-01-28T00:44:03.657Z,2.10
2023-01-28T00:46:31.297Z,2.64
2023-01-28T00:48:59.084Z,2.31
2023-01-28T00:51:26.577Z,2.12
2023-01-28T00:53:54.362Z,2.26
2023-01-28T00:56:23.162Z,2.22
2023-01-28T00:58:50.667Z,2.13
2023-01-28T01:01:20.460Z,2.31
2023-01-28T01:03:54.340Z,2.39
2023-01-28T01:06:22.492Z,2.35
2023-01-28T01:08:51.068Z,2.71
2023-01-28T01:11:18.952Z,3.06
2023-01-28T01:13:51.202Z,3.22
2023-01-28T01:16:18.725Z,3.21
2023-01-28T01:18:46.220Z,3.39
2023-01-28T01:21:17.541Z,3.45
2023-01-28T01:23:45.992Z,3.61
2023-01-28T01:26:13.620Z,3.46
2023-01-28T01:28:41.513Z,3.59
2023-01-28T01:31:15.087Z,3.70
2023-01-28T01:33:45.791Z,3.81
2023-01-28T01:36:14.860Z,3.58
2023-01-28T01:38:42.784Z,3.60
2023-01-28T01:41:17.961Z,3.66
2023-01-28T01:43:50.227Z,2.73
2023-01-28T01:46:24.923Z,3.35
2023-01-28T01:48:53.501Z,3.57
2023-01-28T01:51:24.183Z,3.08
2023-01-28T01:53:56.206Z,3.36
2023-01-28T01:56:29.065Z,3.54
2023-01-28T01:58:58.276Z,3.67
2023-01-28T02:01:31.879Z,3.89
2023-01-28T02:04:06.207Z,3.74
2023-01-28T02:06:35.837Z,3.71
2023-01-28T02:09:03.848Z,3.70
2023-01-28T02:11:34.571Z,3.75
2023-01-28T02:14:05.944Z,3.94
2023-01-28T02:16:35.077Z,3.91
2023-01-28T02:19:03.018Z,3.87
2023-01-28T02:21:58.504Z,3.79
2023-01-28T02:24:49.788Z,3.83
2023-01-28T02:27:28.074Z,3.79
2023-01-28T02:30:03.935Z,3.59
2023-01-28T02:32:37.844Z,3.48
2023-01-28T02:35:14.153Z,3.33
2023-01-28T02:37:48.614Z,3.18
2023-01-28T02:40:21.131Z,2.96
2023-01-28T02:42:49.187Z,3.17
2023-01-28T02:45:21.349Z,2.80
2023-01-28T02:47:59.901Z,2.56
2023-01-28T02:50:38.234Z,2.76
2023-01-28T02:53:36.700Z,2.68
2023-01-28T02:56:13.167Z,2.49
2023-01-28T02:58:46.697Z,2.81
2023-01-28T03:01:23.782Z,2.59
2023-01-28T03:04:00.208Z,2.25
2023-01-28T03:06:35.700Z,2.30
2023-01-28T03:09:26.986Z,1.99
2023-01-28T03:12:15.509Z,2.11
2023-01-28T03:15:08.413Z,2.36
2023-01-28T03:18:00.606Z,2.85
2023-01-28T03:20:52.072Z,2.53
2023-01-28T03:23:45.877Z,2.80
2023-01-28T03:26:32.573Z,2.82
2023-01-28T03:29:25.498Z,2.62
2023-01-28T03:32:12.787Z,2.57
2023-01-28T03:34:59.909Z,2.86
2023-01-28T03:37:28.614Z,2.68
2023-01-28T03:39:58.043Z,2.55
2023-01-28T03:42:25.566Z,2.54
2023-01-28T03:44:53.217Z,2.43
2023-01-28T03:47:21.877Z,2.46
2023-01-28T03:49:52.820Z,2.57
2023-01-28T03:52:22.622Z,2.54
2023-01-28T03:54:50.322Z,1.77
2023-01-28T03:57:19.417Z,2.20
2023-01-28T03:59:49.749Z,2.30
2023-01-28T04:02:18.227Z,2.23
2023-01-28T04:04:45.744Z,2.88
2023-01-28T04:07:15.480Z,2.90
2023-01-28T04:09:43.862Z,3.03
2023-01-28T04:12:11.763Z,3.26
2023-01-28T04:14:40.348Z,3.28
2023-01-28T04:17:08.732Z,3.39
2023-01-28T04:19:37.886Z,3.12
2023-01-28T04:22:07.380Z,3.59
2023-01-28T04:24:36.241Z,3.46
2023-01-28T04:27:03.693Z,3.17
2023-01-28T04:29:31.663Z,3.31
2023-01-28T04:31:59.079Z,2.58
2023-01-28T04:34:26.550Z,2.03
2023-01-28T04:36:53.957Z,2.65
2023-01-28T04:39:21.350Z,2.03
2023-01-28T04:41:50.127Z,2.60
2023-01-28T04:44:17.741Z,3.31
2023-01-28T04:46:45.223Z,3.45
2023-01-28T04:49:12.679Z,3.78
2023-01-28T04:51:40.106Z,2.76
2023-01-28T04:54:07.769Z,2.48
2023-01-28T04:56:35.187Z,2.09
2023-01-28T04:59:03.978Z,2.84
2023-01-28T05:01:31.538Z,2.68
2023-01-28T05:03:59.651Z,2.83
2023-01-28T05:06:27.052Z,3.08
2023-01-28T05:08:54.445Z,3.36
2023-01-28T05:11:21.903Z,3.96
2023-01-28T05:13:49.390Z,3.89
2023-01-28T05:16:18.357Z,3.44
2023-01-28T05:18:47.949Z,3.24
2023-01-28T05:21:15.390Z,2.56
2023-01-28T05:23:42.831Z,3.06
2023-01-28T05:26:10.477Z,3.65
2023-01-28T05:28:37.998Z,3.71
2023-01-28T05:31:07.059Z,3.51
2023-01-28T05:33:35.967Z,3.78
2023-01-28T05:36:03.533Z,3.46
2023-01-28T05:38:31.338Z,3.18
2023-01-28T05:40:58.760Z,3.13
2023-01-28T05:43:26.293Z,3.22
2023-01-28T05:45:53.752Z,3.47
2023-01-28T05:48:21.190Z,3.47
2023-01-28T05:50:50.029Z,3.62
2023-01-28T05:53:17.552Z,3.47
2023-01-28T05:55:45.362Z,3.38
2023-01-28T05:58:12.812Z,3.37
2023-01-28T06:00:40.203Z,3.46
2023-01-28T06:03:07.604Z,2.94
2023-01-28T06:05:35.029Z,3.21
2023-01-28T06:08:04.192Z,2.87
2023-01-28T06:10:31.873Z,3.13
2023-01-28T06:12:59.471Z,3.43
2023-01-28T06:15:27.053Z,3.66
2023-01-28T06:17:54.544Z,4.15
2023-01-28T06:20:22.008Z,4.11
2023-01-28T06:22:51.434Z,3.52
2023-01-28T06:25:20.680Z,3.07
2023-01-28T06:27:48.144Z,2.68
2023-01-28T06:30:16.039Z,2.99
2023-01-28T06:32:44.689Z,3.26
2023-01-28T06:35:12.160Z,3.66
2023-01-28T06:37:39.806Z,3.51
2023-01-28T06:40:08.521Z,4.05
2023-01-28T06:42:37.273Z,4.11
2023-01-28T06:45:05.140Z,3.37
2023-01-28T06:47:32.567Z,3.34
2023-01-28T06:50:00.040Z,2.93
2023-01-28T06:52:27.443Z,2.91
2023-01-28T06:54:54.877Z,1.98
2023-01-28T06:57:22.294Z,2.92
2023-01-28T06:59:51.031Z,3.08
2023-01-28T07:02:18.486Z,2.52
2023-01-28T07:04:46.632Z,3.61
2023-01-28T07:07:14.065Z,4.39
2023-01-28T07:09:41.611Z,3.94
2023-01-28T07:12:09.051Z,2.94
2023-01-28T07:14:36.478Z,3.79
2023-01-28T07:17:05.257Z,4.46
2023-01-28T07:19:32.717Z,4.36
2023-01-28T07:22:02.978Z,4.48
2023-01-28T07:24:30.739Z,4.27
2023-01-28T07:26:58.193Z,2.72
2023-01-28T07:29:25.635Z,3.61
2023-01-28T07:31:53.291Z,3.89
2023-01-28T07:34:22.069Z,3.74
2023-01-28T07:36:49.486Z,4.48
2023-01-28T07:39:16.893Z,3.85
2023-01-28T07:41:44.318Z,3.99
2023-01-28T07:44:11.945Z,3.14
2023-01-28T07:46:39.405Z,3.37
2023-01-28T07:49:06.845Z,3.73
2023-01-28T07:51:35.592Z,2.95
2023-01-28T07:54:03.026Z,2.96
2023-01-28T07:56:32.033Z,2.61
2023-01-28T07:58:59.432Z,3.82
2023-01-28T08:01:27.097Z,3.62
2023-01-28T08:03:54.528Z,3.20
2023-01-28T08:06:22.007Z,3.60
2023-01-28T08:08:50.752Z,2.82
2023-01-28T08:11:18.161Z,2.98
2023-01-28T08:13:45.595Z,3.77
2023-01-28T08:16:13.152Z,3.22
2023-01-28T08:18:40.613Z,3.67
2023-01-28T08:21:08.292Z,3.95
2023-01-28T08:23:35.845Z,4.30
2023-01-28T08:26:04.627Z,4.33
2023-01-28T08:28:32.144Z,4.55
2023-01-28T08:31:00.791Z,3.55
2023-01-28T08:33:28.947Z,4.33
2023-01-28T08:35:56.446Z,4.36
2023-01-28T08:38:24.084Z,4.50
2023-01-28T08:40:54.008Z,3.69
2023-01-28T08:43:22.947Z,3.56
2023-01-28T08:45:50.722Z,4.05
2023-01-28T08:48:20.089Z,4.56
2023-01-28T08:50:47.602Z,4.87
2023-01-28T08:53:16.933Z,4.49
2023-01-28T08:55:45.089Z,4.51
2023-01-28T08:58:14.549Z,4.05
2023-01-28T09:00:44.465Z,3.45
2023-01-28T09:03:12.099Z,3.87
2023-01-28T09:05:39.931Z,4.09
2023-01-28T09:08:10.449Z,2.28
2023-01-28T09:10:38.677Z,2.50
2023-01-28T09:13:06.429Z,2.51
2023-01-28T09:15:33.885Z,3.20
2023-01-28T09:18:02.839Z,4.15
2023-01-28T09:20:30.359Z,4.01
2023-01-28T09:22:59.890Z,3.73
2023-01-28T09:25:27.643Z,3.86
2023-01-28T09:27:55.133Z,3.59
2023-01-28T09:30:23.026Z,2.98
2023-01-28T09:32:52.257Z,3.70
2023-01-28T09:35:21.435Z,3.05
2023-01-28T09:37:49.432Z,2.27
2023-01-28T09:40:19.778Z,3.30
2023-01-28T09:43:00.314Z,4.05
2023-01-28T09:45:37.416Z,4.48
2023-01-28T09:48:06.841Z,4.25
2023-01-28T09:50:39.391Z,3.73
2023-01-28T09:53:11.473Z,4.63
2023-01-28T09:55:41.903Z,5.01
2023-01-28T09:58:12.696Z,4.81
2023-01-28T10:00:46.319Z,5.14
2023-01-28T10:03:33.372Z,4.81
2023-01-28T10:06:14.505Z,4.81
2023-01-28T10:09:01.097Z,5.32
2023-01-28T10:11:44.119Z,5.21
2023-01-28T10:14:20.820Z,5.38
2023-01-28T10:16:53.448Z,4.72
2023-01-28T10:19:25.839Z,4.66
2023-01-28T10:22:00.791Z,4.69
2023-01-28T10:24:32.732Z,4.95
2023-01-28T10:27:00.598Z,5.04
2023-01-28T10:29:32.193Z,5.66
2023-01-28T10:32:02.932Z,5.44
2023-01-28T10:34:30.392Z,5.77
2023-01-28T10:36:59.636Z,5.75
2023-01-28T10:39:27.768Z,5.70
2023-01-28T10:41:59.098Z,5.77
2023-01-28T10:44:35.707Z,5.62
2023-01-28T10:47:09.282Z,5.65
2023-01-28T10:49:42.302Z,5.41
2023-01-28T10:52:15.169Z,4.94
2023-01-28T10:54:42.948Z,5.03
2023-01-28T10:57:13.559Z,5.59
2023-01-28T10:59:42.818Z,5.52
2023-01-28T11:02:26.727Z,5.17
2023-01-28T11:05:02.646Z,5.20
2023-01-28T11:07:31.673Z,4.79
2023-01-28T11:09:59.195Z,4.18
2023-01-28T11:12:28.467Z,4.95
2023-01-28T11:14:58.230Z,4.93
2023-01-28T11:17:29.202Z,4.98
2023-01-28T11:19:59.367Z,5.12
2023-01-28T11:22:33.758Z,4.41
2023-01-28T11:25:02.815Z,4.06
2023-01-28T11:27:32.622Z,4.04
2023-01-28T11:30:04.404Z,4.18
2023-01-28T11:32:32.487Z,3.95
2023-01-28T11:35:00.506Z,3.95
2023-01-28T11:37:30.119Z,3.65
2023-01-28T11:40:21.442Z,3.39
2023-01-28T11:42:50.979Z,3.90
2023-01-28T11:45:19.956Z,4.18
2023-01-28T11:48:01.821Z,4.04
2023-01-28T11:50:38.335Z,3.82
2023-01-28T11:53:28.668Z,3.66
2023-01-28T11:56:14.606Z,3.54
2023-01-28T11:58:52.799Z,3.74
2023-01-28T12:01:30.260Z,4.11
2023-01-28T12:04:18.247Z,4.78
2023-01-28T12:07:01.922Z,4.98
2023-01-28T12:09:43.806Z,5.36
2023-01-28T12:12:23.992Z,4.94
2023-01-28T12:15:06.968Z,5.23
2023-01-28T12:17:49.447Z,5.07
2023-01-28T12:20:25.693Z,5.09
2023-01-28T12:23:19.087Z,4.87
2023-01-28T12:26:02.655Z,4.51
2023-01-28T12:28:45.509Z,4.41
2023-01-28T12:31:32.532Z,4.63
2023-01-28T12:34:32.829Z,4.82
2023-01-28T12:37:08.660Z,5.10
2023-01-28T12:39:50.292Z,5.38
2023-01-28T12:42:27.273Z,5.72
2023-01-28T12:45:01.472Z,5.59
2023-01-28T12:47:35.416Z,5.55
2023-01-28T12:50:12.211Z,5.51
2023-01-28T12:52:44.675Z,5.42
2023-01-28T12:55:17.236Z,5.84
2023-01-28T12:57:45.621Z,5.90
2023-01-28T13:00:27.324Z,5.77
2023-01-28T13:03:11.787Z,5.51
2023-01-28T13:05:44.767Z,5.50
2023-01-28T13:08:17.796Z,5.62
2023-01-28T13:10:46.779Z,5.78
2023-01-28T13:13:18.722Z,6.04
2023-01-28T13:15:48.001Z,6.12
2023-01-28T13:18:32.837Z,5.82
2023-01-28T13:21:01.458Z,6.06
2023-01-28T13:23:39.265Z,6.02
2023-01-28T13:26:13.538Z,6.12
2023-01-28T13:28:40.928Z,5.72
2023-01-28T13:31:17.301Z,5.17
2023-01-28T13:33:48.622Z,5.14
2023-01-28T13:36:27.027Z,4.82
2023-01-28T13:39:03.530Z,4.78
2023-01-28T13:41:41.648Z,4.33
2023-01-28T13:44:27.481Z,4.58
2023-01-28T13:47:00.654Z,4.31
2023-01-28T13:49:35.274Z,4.38
2023-01-28T13:52:08.962Z,4.69
2023-01-28T13:54:38.843Z,4.40
2023-01-28T13:57:28.168Z,5.05
2023-01-28T14:00:07.102Z,5.02
2023-01-28T14:02:57.005Z,4.68
2023-01-28T14:06:12.887Z,5.17
2023-01-28T14:08:57.265Z,5.60
2023-01-28T14:11:47.192Z,5.16
2023-01-28T14:14:38.829Z,5.78
2023-01-28T14:17:14.280Z,5.19
2023-01-28T14:19:44.753Z,5.25
2023-01-28T14:22:19.699Z,5.62
2023-01-28T14:24:47.664Z,5.75
2023-01-28T14:27:20.949Z,5.83
2023-01-28T14:30:00.725Z,5.26
2023-01-28T14:32:30.954Z,5.02
2023-01-28T14:35:05.632Z,4.74
2023-01-28T14:37:34.048Z,4.63
2023-01-28T14:40:03.530Z,4.95
2023-01-28T14:42:33.774Z,5.38
2023-01-28T14:45:15.176Z,4.95
2023-01-28T14:47:55.759Z,4.39
2023-01-28T14:50:51.300Z,4.33
2023-01-28T14:53:31.803Z,5.18
2023-01-28T14:56:10.579Z,5.37
2023-01-28T14:58:43.154Z,4.70
2023-01-28T15:01:21.762Z,4.72
2023-01-28T15:03:49.314Z,4.89
2023-01-28T15:06:21.574Z,4.62
2023-01-28T15:08:49.510Z,4.63
2023-01-28T15:11:20.740Z,5.24
2023-01-28T15:13:50.562Z,5.14
2023-01-28T15:16:21.326Z,5.46
2023-01-28T15:18:50.824Z,5.09
2023-01-28T15:21:22.669Z,5.22
2023-01-28T15:23:53.540Z,5.21
2023-01-28T15:26:23.092Z,5.12
2023-01-28T15:28:52.567Z,5.24
2023-01-28T15:31:22.116Z,4.98
2023-01-28T15:33:57.535Z,5.43
2023-01-28T15:36:27.040Z,5.08
2023-01-28T15:38:55.096Z,4.97
2023-01-28T15:41:25.289Z,5.14
2023-01-28T15:43:53.789Z,5.41
2023-01-28T15:46:21.452Z,5.38
2023-01-28T15:48:52.748Z,5.04
2023-01-28T15:51:24.500Z,5.03
2023-01-28T15:53:57.556Z,4.50
2023-01-28T15:56:27.918Z,4.34
2023-01-28T15:58:56.168Z,4.44
2023-01-28T16:01:24.442Z,4.51
2023-01-28T16:04:03.024Z,4.50
2023-01-28T16:06:33.642Z,4.05
2023-01-28T16:09:04.964Z,4.04
2023-01-28T16:11:37.265Z,4.27
2023-01-28T16:14:05.235Z,4.45
2023-01-28T16:16:35.349Z,3.80
2023-01-28T16:19:05.782Z,4.14
2023-01-28T16:21:37.898Z,3.78
2023-01-28T16:24:20.847Z,3.54
2023-01-28T16:26:57.369Z,4.38
2023-01-28T16:29:24.813Z,4.89
2023-01-28T16:31:52.301Z,5.26
2023-01-28T16:34:19.817Z,5.13
2023-01-28T16:36:47.298Z,4.54
2023-01-28T16:39:16.050Z,4.42
2023-01-28T16:41:45.147Z,4.42
2023-01-28T16:44:14.466Z,3.68
2023-01-28T16:46:42.047Z,3.92
2023-01-28T16:49:10.466Z,3.80
2023-01-28T16:51:39.540Z,3.64
2023-01-28T16:54:07.387Z,3.23
2023-01-28T16:56:45.982Z,3.85
2023-01-28T16:59:15.731Z,3.60
2023-01-28T17:01:43.609Z,3.60
2023-01-28T17:04:12.774Z,4.20
2023-01-28T17:06:42.999Z,4.11
2023-01-28T17:09:10.880Z,4.43
2023-01-28T17:11:40.718Z,4.20
2023-01-28T17:14:08.322Z,4.15
2023-01-28T17:16:35.956Z,3.35
2023-01-28T17:19:03.827Z,3.46
2023-01-28T17:21:31.302Z,3.10
2023-01-28T17:23:59.459Z,3.39
2023-01-28T17:26:28.915Z,3.08
2023-01-28T17:28:57.739Z,3.31
2023-01-28T17:31:26.317Z,3.33
2023-01-28T17:33:55.674Z,3.29
2023-01-28T17:36:23.749Z,3.24
2023-01-28T17:38:51.354Z,3.22
2023-01-28T17:41:19.324Z,3.13
2023-01-28T17:43:51.808Z,3.46
2023-01-28T17:46:22.133Z,4.02
2023-01-28T17:48:49.560Z,3.82
2023-01-28T17:51:18.677Z,3.68
2023-01-28T17:53:46.808Z,3.88
2023-01-28T17:56:18.741Z,4.42
2023-01-28T17:58:50.721Z,4.38
2023-01-28T18:01:18.373Z,4.28
2023-01-28T18:03:47.176Z,4.60
2023-01-28T18:06:14.656Z,4.59
2023-01-28T18:08:42.078Z,4.19
2023-01-28T18:11:10.663Z,4.02
2023-01-28T18:13:38.256Z,3.91
2023-01-28T18:16:07.570Z,4.34
2023-01-28T18:18:35.446Z,3.82
2023-01-28T18:21:06.955Z,3.88
2023-01-28T18:23:35.161Z,4.07
2023-01-28T18:26:07.237Z,4.37
2023-01-28T18:28:34.718Z,4.64
2023-01-28T18:31:05.844Z,4.47
2023-01-28T18:33:33.348Z,4.61
2023-01-28T18:36:00.837Z,4.25
2023-01-28T18:38:29.662Z,3.89
2023-01-28T18:40:57.556Z,4.30
2023-01-28T18:43:25.007Z,4.24
2023-01-28T18:45:52.455Z,4.28
2023-01-28T18:48:20.406Z,4.59
2023-01-28T18:50:51.058Z,4.63
2023-01-28T18:53:18.564Z,4.47
2023-01-28T18:55:47.441Z,4.26
2023-01-28T18:58:14.980Z,4.39
2023-01-28T19:00:42.423Z,4.57
2023-01-28T19:03:09.816Z,4.81
2023-01-28T19:05:37.551Z,4.82
2023-01-28T19:08:06.685Z,3.86
2023-01-28T19:10:34.197Z,4.32
2023-01-28T19:13:03.066Z,4.76
2023-01-28T19:15:30.927Z,4.84
2023-01-28T19:17:58.810Z,4.84
2023-01-28T19:20:26.445Z,4.79
2023-01-28T19:22:53.883Z,4.63
2023-01-28T19:25:21.429Z,4.52
2023-01-28T19:27:48.883Z,4.34
2023-01-28T19:30:18.266Z,4.40
2023-01-28T19:32:45.705Z,4.29
2023-01-28T19:35:13.402Z,4.41
2023-01-28T19:37:41.039Z,4.53
2023-01-28T19:40:09.820Z,4.32
2023-01-28T19:42:37.301Z,4.13
2023-01-28T19:45:06.259Z,4.33
2023-01-28T19:47:35.280Z,4.45
2023-01-28T19:50:02.750Z,4.62
2023-01-28T19:52:31.328Z,4.32
2023-01-28T19:55:01.613Z,4.32
2023-01-28T19:57:29.079Z,4.26
2023-01-28T19:59:56.511Z,4.42
2023-01-28T20:02:23.972Z,4.40
2023-01-28T20:05:00.570Z,4.47
2023-01-28T20:07:28.504Z,4.16
2023-01-28T20:09:56.054Z,4.16
2023-01-28T20:12:23.570Z,4.39
2023-01-28T20:14:50.956Z,4.05
2023-01-28T20:17:18.468Z,4.37
2023-01-28T20:19:45.908Z,4.06
2023-01-28T20:22:14.649Z,4.01
2023-01-28T20:24:42.085Z,3.26
2023-01-28T20:27:09.609Z,3.88
2023-01-28T20:29:37.045Z,3.56
2023-01-28T20:32:16.261Z,3.08
2023-01-28T20:34:45.089Z,3.54
2023-01-28T20:37:12.534Z,3.90
2023-01-28T20:39:44.391Z,3.34
2023-01-28T20:42:13.289Z,3.96
2023-01-28T20:44:40.797Z,4.43
2023-01-28T20:47:09.290Z,4.13
2023-01-28T20:49:36.700Z,4.08
2023-01-28T20:52:05.727Z,3.95
2023-01-28T20:54:33.205Z,3.83
2023-01-28T20:57:01.977Z,3.97
2023-01-28T20:59:31.156Z,4.32
2023-01-28T21:01:58.595Z,4.40
2023-01-28T21:04:26.098Z,4.37
2023-01-28T21:06:53.502Z,4.19
2023-01-28T21:09:22.612Z,4.14
2023-01-28T21:11:50.060Z,4.18
2023-01-28T21:14:18.981Z,3.93
2023-01-28T21:16:47.296Z,3.18
2023-01-28T21:19:14.817Z,3.54
2023-01-28T21:21:42.905Z,3.81
2023-01-28T21:24:11.835Z,4.01
2023-01-28T21:26:39.370Z,5.00
2023-01-28T21:29:07.080Z,5.30
2023-01-28T21:31:35.788Z,5.21
2023-01-28T21:34:03.221Z,4.65
2023-01-28T21:36:33.631Z,4.67
2023-01-28T21:39:02.960Z,4.61
2023-01-28T21:41:30.466Z,4.60
2023-01-28T21:43:58.590Z,4.69
2023-01-28T21:46:27.795Z,4.27
2023-01-28T21:48:57.761Z,4.44
2023-01-28T21:51:39.234Z,4.18
2023-01-28T21:54:08.815Z,3.90
2023-01-28T21:56:36.289Z,3.82
2023-01-28T21:59:21.603Z,3.30
2023-01-28T22:01:49.196Z,2.11
2023-01-28T22:04:17.981Z,3.31
2023-01-28T22:06:45.463Z,3.81
2023-01-28T22:09:14.051Z,4.14
2023-01-28T22:11:42.946Z,3.52
2023-01-28T22:14:10.710Z,3.66
2023-01-28T22:16:38.378Z,3.43
2023-01-28T22:19:06.041Z,3.76
2023-01-28T22:21:40.775Z,3.54
2023-01-28T22:24:13.647Z,3.87
2023-01-28T22:26:41.949Z,3.26
2023-01-28T22:29:09.936Z,3.56
2023-01-28T22:31:37.730Z,2.92
2023-01-28T22:34:05.940Z,3.22
2023-01-28T22:36:35.455Z,3.38
2023-01-28T22:39:04.449Z,3.04
2023-01-28T22:41:32.531Z,3.25
2023-01-28T22:44:01.564Z,3.70
2023-01-28T22:46:29.306Z,4.00
2023-01-28T22:48:56.903Z,4.11
2023-01-28T22:51:25.894Z,4.16
2023-01-28T22:53:54.686Z,4.24
2023-01-28T22:56:24.106Z,4.18
2023-01-28T22:58:55.650Z,4.11
2023-01-28T23:01:23.281Z,4.11
2023-01-28T23:03:53.336Z,4.27
2023-01-28T23:06:22.749Z,4.23
2023-01-28T23:08:50.777Z,3.99
2023-01-28T23:11:27.209Z,4.05
2023-01-28T23:14:14.566Z,3.80
2023-01-28T23:16:59.930Z,4.14
2023-01-28T23:19:45.032Z,4.11
2023-01-28T23:22:31.905Z,3.26
2023-01-28T23:24:59.685Z,3.90
2023-01-28T23:27:28.475Z,2.99
2023-01-28T23:29:55.989Z,2.73
2023-01-28T23:32:24.074Z,3.59
2023-01-28T23:34:51.892Z,3.30
2023-01-28T23:37:19.380Z,3.37
2023-01-28T23:39:46.854Z,2.93
2023-01-28T23:42:16.121Z,3.93
2023-01-28T23:44:45.515Z,3.23
2023-01-28T23:47:13.430Z,4.02
2023-01-28T23:49:41.028Z,4.03
2023-01-28T23:52:09.407Z,3.82
2023-01-28T23:54:37.059Z,2.75
2023-01-28T23:57:05.140Z,3.92
2023-01-28T23:59:32.773Z,3.67
